sensor_id;sensor_type;location;lat;lon;timestamp;temperature;humidity
52275;DHT22;38228;50.940;4.024;2023-03-31T00:01:10;12.80;99.90
52275;DHT22;38228;50.940;4.024;2023-03-31T00:03:36;12.70;99.90
52275;DHT22;38228;50.940;4.024;2023-03-31T00:06:03;12.80;99.90
52275;DHT22;38228;50.940;4.024;2023-03-31T00:08:29;12.80;99.90
52275;DHT22;38228;50.940;4.024;2023-03-31T00:10:59;12.80;99.90
52275;DHT22;38228;50.940;4.024;2023-03-31T00:13:25;12.80;99.90
52275;DHT22;38228;50.940;4.024;2023-03-31T00:15:58;12.70;99.90
52275;DHT22;38228;50.940;4.024;2023-03-31T00:18:25;12.70;99.90
52275;DHT22;38228;50.940;4.024;2023-03-31T00:20:51;12.70;99.90
52275;DHT22;38228;50.940;4.024;2023-03-31T00:23:17;12.60;99.90
52275;DHT22;38228;50.940;4.024;2023-03-31T00:25:43;12.70;99.90
52275;DHT22;38228;50.940;4.024;2023-03-31T00:28:09;12.60;99.90
52275;DHT22;38228;50.940;4.024;2023-03-31T00:30:34;12.60;99.90
52275;DHT22;38228;50.940;4.024;2023-03-31T00:33:00;12.60;99.90
52275;DHT22;38228;50.940;4.024;2023-03-31T00:35:26;12.50;99.90
52275;DHT22;38228;50.940;4.024;2023-03-31T00:37:51;12.40;99.90
52275;DHT22;38228;50.940;4.024;2023-03-31T00:40:18;12.50;99.90
52275;DHT22;38228;50.940;4.024;2023-03-31T00:42:44;12.40;99.90
52275;DHT22;38228;50.940;4.024;2023-03-31T00:47:43;12.40;99.90
52275;DHT22;38228;50.940;4.024;2023-03-31T00:50:14;12.30;99.90
52275;DHT22;38228;50.940;4.024;2023-03-31T00:52:40;12.30;99.90
52275;DHT22;38228;50.940;4.024;2023-03-31T00:55:10;12.20;99.90
52275;DHT22;38228;50.940;4.024;2023-03-31T00:57:39;12.10;99.90
52275;DHT22;38228;50.940;4.024;2023-03-31T01:00:06;11.90;99.90
52275;DHT22;38228;50.940;4.024;2023-03-31T01:02:43;11.90;99.90
52275;DHT22;38228;50.940;4.024;2023-03-31T01:05:15;12.00;99.90
52275;DHT22;38228;50.940;4.024;2023-03-31T01:07:43;11.90;99.90
52275;DHT22;38228;50.940;4.024;2023-03-31T01:10:09;11.90;99.90
52275;DHT22;38228;50.940;4.024;2023-03-31T01:12:36;11.90;99.90
52275;DHT22;38228;50.940;4.024;2023-03-31T01:15:02;12.00;99.90
52275;DHT22;38228;50.940;4.024;2023-03-31T01:17:28;12.00;99.90
52275;DHT22;38228;50.940;4.024;2023-03-31T01:25:23;12.00;99.90
52275;DHT22;38228;50.940;4.024;2023-03-31T01:33:29;12.10;99.90
52275;DHT22;38228;50.940;4.024;2023-03-31T01:41:35;12.10;99.90
52275;DHT22;38228;50.940;4.024;2023-03-31T01:46:45;12.10;99.90
52275;DHT22;38228;50.940;4.024;2023-03-31T01:57:11;12.00;99.90
52275;DHT22;38228;50.940;4.024;2023-03-31T02:02:21;11.80;99.90
52275;DHT22;38228;50.940;4.024;2023-03-31T02:04:50;11.90;99.90
52275;DHT22;38228;50.940;4.024;2023-03-31T02:07:18;12.00;99.90
52275;DHT22;38228;50.940;4.024;2023-03-31T02:09:49;12.10;99.90
52275;DHT22;38228;50.940;4.024;2023-03-31T02:12:18;11.90;99.90
52275;DHT22;38228;50.940;4.024;2023-03-31T02:14:45;11.90;99.90
52275;DHT22;38228;50.940;4.024;2023-03-31T02:17:14;12.00;99.90
52275;DHT22;38228;50.940;4.024;2023-03-31T02:19:43;11.90;99.90
52275;DHT22;38228;50.940;4.024;2023-03-31T02:22:09;11.90;99.90
52275;DHT22;38228;50.940;4.024;2023-03-31T02:24:36;11.90;99.90
52275;DHT22;38228;50.940;4.024;2023-03-31T02:27:24;12.00;99.90
52275;DHT22;38228;50.940;4.024;2023-03-31T02:29:50;12.00;99.90
52275;DHT22;38228;50.940;4.024;2023-03-31T02:34:48;11.80;99.90
52275;DHT22;38228;50.940;4.024;2023-03-31T02:37:13;11.70;99.90
52275;DHT22;38228;50.940;4.024;2023-03-31T02:39:40;11.70;99.90
52275;DHT22;38228;50.940;4.024;2023-03-31T02:42:07;11.70;99.90
52275;DHT22;38228;50.940;4.024;2023-03-31T02:44:33;11.70;99.90
52275;DHT22;38228;50.940;4.024;2023-03-31T02:46:59;11.60;99.90
52275;DHT22;38228;50.940;4.024;2023-03-31T02:49:25;11.60;99.90
52275;DHT22;38228;50.940;4.024;2023-03-31T02:52:04;11.60;99.90
52275;DHT22;38228;50.940;4.024;2023-03-31T02:57:18;11.50;99.90
52275;DHT22;38228;50.940;4.024;2023-03-31T03:07:26;11.50;99.90
52275;DHT22;38228;50.940;4.024;2023-03-31T03:12:31;11.50;99.90
52275;DHT22;38228;50.940;4.024;2023-03-31T03:14:59;11.60;99.90
52275;DHT22;38228;50.940;4.024;2023-03-31T03:17:46;11.50;99.90
52275;DHT22;38228;50.940;4.024;2023-03-31T03:20:13;11.50;99.90
52275;DHT22;38228;50.940;4.024;2023-03-31T03:22:40;11.50;99.90
52275;DHT22;38228;50.940;4.024;2023-03-31T03:25:07;11.40;99.90
52275;DHT22;38228;50.940;4.024;2023-03-31T03:27:34;11.50;99.90
52275;DHT22;38228;50.940;4.024;2023-03-31T03:30:00;11.50;99.90
52275;DHT22;38228;50.940;4.024;2023-03-31T03:32:29;11.50;99.90
52275;DHT22;38228;50.940;4.024;2023-03-31T03:34:55;11.40;99.90
52275;DHT22;38228;50.940;4.024;2023-03-31T03:37:20;11.30;99.90
52275;DHT22;38228;50.940;4.024;2023-03-31T03:39:46;11.30;99.90
52275;DHT22;38228;50.940;4.024;2023-03-31T03:42:11;11.40;99.90
52275;DHT22;38228;50.940;4.024;2023-03-31T03:44:37;11.60;99.90
52275;DHT22;38228;50.940;4.024;2023-03-31T03:47:03;11.60;99.90
52275;DHT22;38228;50.940;4.024;2023-03-31T03:49:28;11.60;99.90
52275;DHT22;38228;50.940;4.024;2023-03-31T03:51:54;11.60;99.90
52275;DHT22;38228;50.940;4.024;2023-03-31T03:54:19;11.70;99.90
52275;DHT22;38228;50.940;4.024;2023-03-31T03:56:45;11.60;99.90
52275;DHT22;38228;50.940;4.024;2023-03-31T03:59:11;11.50;99.90
52275;DHT22;38228;50.940;4.024;2023-03-31T04:01:36;11.40;99.90
52275;DHT22;38228;50.940;4.024;2023-03-31T04:04:02;11.40;99.90
52275;DHT22;38228;50.940;4.024;2023-03-31T04:06:28;11.40;99.90
52275;DHT22;38228;50.940;4.024;2023-03-31T04:08:53;11.40;99.90
52275;DHT22;38228;50.940;4.024;2023-03-31T04:11:19;11.40;99.90
52275;DHT22;38228;50.940;4.024;2023-03-31T04:13:45;11.20;99.90
52275;DHT22;38228;50.940;4.024;2023-03-31T04:16:11;11.20;99.90
52275;DHT22;38228;50.940;4.024;2023-03-31T04:18:36;11.30;99.90
52275;DHT22;38228;50.940;4.024;2023-03-31T04:21:15;11.20;99.90
52275;DHT22;38228;50.940;4.024;2023-03-31T04:23:48;11.20;99.90
52275;DHT22;38228;50.940;4.024;2023-03-31T04:26:14;11.20;99.90
52275;DHT22;38228;50.940;4.024;2023-03-31T04:28:40;11.00;99.90
52275;DHT22;38228;50.940;4.024;2023-03-31T04:31:11;11.00;99.90
52275;DHT22;38228;50.940;4.024;2023-03-31T04:33:41;10.90;99.90
52275;DHT22;38228;50.940;4.024;2023-03-31T04:36:10;11.00;99.90
52275;DHT22;38228;50.940;4.024;2023-03-31T04:38:42;10.90;99.90
52275;DHT22;38228;50.940;4.024;2023-03-31T04:41:13;10.80;99.90
52275;DHT22;38228;50.940;4.024;2023-03-31T04:43:39;11.00;99.90
52275;DHT22;38228;50.940;4.024;2023-03-31T04:46:04;11.00;99.90
52275;DHT22;38228;50.940;4.024;2023-03-31T04:48:30;11.00;99.90
52275;DHT22;38228;50.940;4.024;2023-03-31T04:50:55;11.10;99.90
52275;DHT22;38228;50.940;4.024;2023-03-31T04:53:21;11.10;99.90
52275;DHT22;38228;50.940;4.024;2023-03-31T04:55:50;11.00;99.90
52275;DHT22;38228;50.940;4.024;2023-03-31T04:58:16;11.10;99.90
52275;DHT22;38228;50.940;4.024;2023-03-31T05:00:41;11.10;99.90
52275;DHT22;38228;50.940;4.024;2023-03-31T05:03:07;11.30;99.90
52275;DHT22;38228;50.940;4.024;2023-03-31T05:05:34;11.30;99.90
52275;DHT22;38228;50.940;4.024;2023-03-31T05:07:59;11.30;99.90
52275;DHT22;38228;50.940;4.024;2023-03-31T05:10:25;11.30;99.90
52275;DHT22;38228;50.940;4.024;2023-03-31T05:12:51;11.50;99.90
52275;DHT22;38228;50.940;4.024;2023-03-31T05:15:16;11.50;99.90
52275;DHT22;38228;50.940;4.024;2023-03-31T05:17:42;11.50;99.90
52275;DHT22;38228;50.940;4.024;2023-03-31T05:20:08;11.50;99.90
52275;DHT22;38228;50.940;4.024;2023-03-31T05:22:35;11.50;99.90
52275;DHT22;38228;50.940;4.024;2023-03-31T05:25:01;11.50;99.90
52275;DHT22;38228;50.940;4.024;2023-03-31T05:27:27;11.50;99.90
52275;DHT22;38228;50.940;4.024;2023-03-31T05:29:52;11.50;99.90
52275;DHT22;38228;50.940;4.024;2023-03-31T05:32:18;11.40;99.90
52275;DHT22;38228;50.940;4.024;2023-03-31T05:34:43;11.50;99.90
52275;DHT22;38228;50.940;4.024;2023-03-31T05:37:09;11.50;99.90
52275;DHT22;38228;50.940;4.024;2023-03-31T05:39:34;11.60;99.90
52275;DHT22;38228;50.940;4.024;2023-03-31T05:42:00;11.60;99.90
52275;DHT22;38228;50.940;4.024;2023-03-31T05:44:26;11.60;99.90
52275;DHT22;38228;50.940;4.024;2023-03-31T05:46:54;11.70;99.90
52275;DHT22;38228;50.940;4.024;2023-03-31T05:49:19;11.80;99.90
52275;DHT22;38228;50.940;4.024;2023-03-31T05:51:45;11.80;99.90
52275;DHT22;38228;50.940;4.024;2023-03-31T05:54:11;11.80;99.90
52275;DHT22;38228;50.940;4.024;2023-03-31T05:56:36;11.80;99.90
52275;DHT22;38228;50.940;4.024;2023-03-31T05:59:02;11.90;99.90
52275;DHT22;38228;50.940;4.024;2023-03-31T06:01:27;11.90;99.90
52275;DHT22;38228;50.940;4.024;2023-03-31T06:03:54;11.90;99.90
52275;DHT22;38228;50.940;4.024;2023-03-31T06:06:19;12.00;99.90
52275;DHT22;38228;50.940;4.024;2023-03-31T06:08:45;12.00;99.90
52275;DHT22;38228;50.940;4.024;2023-03-31T06:11:13;12.10;99.90
52275;DHT22;38228;50.940;4.024;2023-03-31T06:13:39;12.10;99.90
52275;DHT22;38228;50.940;4.024;2023-03-31T06:16:05;11.90;99.90
52275;DHT22;38228;50.940;4.024;2023-03-31T06:18:32;11.90;99.90
52275;DHT22;38228;50.940;4.024;2023-03-31T06:20:58;12.00;99.90
52275;DHT22;38228;50.940;4.024;2023-03-31T06:23:24;12.00;99.90
52275;DHT22;38228;50.940;4.024;2023-03-31T06:25:49;11.90;99.90
52275;DHT22;38228;50.940;4.024;2023-03-31T06:28:15;12.00;99.90
52275;DHT22;38228;50.940;4.024;2023-03-31T06:30:41;12.10;99.90
52275;DHT22;38228;50.940;4.024;2023-03-31T06:33:06;12.10;99.90
52275;DHT22;38228;50.940;4.024;2023-03-31T06:35:32;12.10;99.90
52275;DHT22;38228;50.940;4.024;2023-03-31T06:37:57;12.10;99.90
52275;DHT22;38228;50.940;4.024;2023-03-31T06:40:23;12.00;99.90
52275;DHT22;38228;50.940;4.024;2023-03-31T06:42:49;12.00;99.90
52275;DHT22;38228;50.940;4.024;2023-03-31T06:45:14;12.10;99.90
52275;DHT22;38228;50.940;4.024;2023-03-31T06:47:40;12.10;99.90
52275;DHT22;38228;50.940;4.024;2023-03-31T06:50:06;12.10;99.90
52275;DHT22;38228;50.940;4.024;2023-03-31T06:52:32;12.10;99.90
52275;DHT22;38228;50.940;4.024;2023-03-31T06:54:57;12.20;99.90
52275;DHT22;38228;50.940;4.024;2023-03-31T06:57:27;12.30;99.90
52275;DHT22;38228;50.940;4.024;2023-03-31T06:59:52;12.20;99.90
52275;DHT22;38228;50.940;4.024;2023-03-31T07:02:18;12.20;99.90
52275;DHT22;38228;50.940;4.024;2023-03-31T07:04:44;12.20;99.90
52275;DHT22;38228;50.940;4.024;2023-03-31T07:07:09;12.20;99.90
52275;DHT22;38228;50.940;4.024;2023-03-31T07:09:35;12.30;99.90
52275;DHT22;38228;50.940;4.024;2023-03-31T07:12:01;12.20;99.90
52275;DHT22;38228;50.940;4.024;2023-03-31T07:14:32;12.10;99.90
52275;DHT22;38228;50.940;4.024;2023-03-31T07:16:58;11.90;99.90
52275;DHT22;38228;50.940;4.024;2023-03-31T07:19:23;12.00;99.90
52275;DHT22;38228;50.940;4.024;2023-03-31T07:21:49;12.10;99.90
52275;DHT22;38228;50.940;4.024;2023-03-31T07:24:16;12.20;99.90
52275;DHT22;38228;50.940;4.024;2023-03-31T07:26:41;12.30;99.90
52275;DHT22;38228;50.940;4.024;2023-03-31T07:29:07;12.20;99.90
52275;DHT22;38228;50.940;4.024;2023-03-31T07:31:32;12.20;99.90
52275;DHT22;38228;50.940;4.024;2023-03-31T07:33:59;12.20;99.90
52275;DHT22;38228;50.940;4.024;2023-03-31T07:36:25;12.30;99.90
52275;DHT22;38228;50.940;4.024;2023-03-31T07:38:50;12.40;99.90
52275;DHT22;38228;50.940;4.024;2023-03-31T07:41:17;12.40;99.90
52275;DHT22;38228;50.940;4.024;2023-03-31T07:43:43;12.50;99.90
52275;DHT22;38228;50.940;4.024;2023-03-31T07:46:15;12.70;99.90
52275;DHT22;38228;50.940;4.024;2023-03-31T07:48:42;12.70;99.90
52275;DHT22;38228;50.940;4.024;2023-03-31T07:51:08;12.70;99.90
52275;DHT22;38228;50.940;4.024;2023-03-31T07:53:34;12.60;99.90
52275;DHT22;38228;50.940;4.024;2023-03-31T07:55:59;12.40;99.90
52275;DHT22;38228;50.940;4.024;2023-03-31T07:58:25;12.40;99.90
52275;DHT22;38228;50.940;4.024;2023-03-31T08:00:51;12.50;99.90
52275;DHT22;38228;50.940;4.024;2023-03-31T08:03:16;12.40;99.90
52275;DHT22;38228;50.940;4.024;2023-03-31T08:05:42;12.30;99.90
52275;DHT22;38228;50.940;4.024;2023-03-31T08:08:08;12.20;99.90
52275;DHT22;38228;50.940;4.024;2023-03-31T08:10:33;12.10;99.90
52275;DHT22;38228;50.940;4.024;2023-03-31T08:12:59;12.10;99.90
52275;DHT22;38228;50.940;4.024;2023-03-31T08:15:25;12.10;99.90
52275;DHT22;38228;50.940;4.024;2023-03-31T08:17:50;12.20;99.90
52275;DHT22;38228;50.940;4.024;2023-03-31T08:20:16;12.30;99.90
52275;DHT22;38228;50.940;4.024;2023-03-31T08:22:42;12.40;99.90
52275;DHT22;38228;50.940;4.024;2023-03-31T08:25:07;12.50;99.90
52275;DHT22;38228;50.940;4.024;2023-03-31T08:27:34;12.60;99.90
52275;DHT22;38228;50.940;4.024;2023-03-31T08:29:59;12.70;99.90
52275;DHT22;38228;50.940;4.024;2023-03-31T08:32:29;12.60;99.90
52275;DHT22;38228;50.940;4.024;2023-03-31T08:34:55;12.60;99.90
52275;DHT22;38228;50.940;4.024;2023-03-31T08:37:20;12.50;99.90
52275;DHT22;38228;50.940;4.024;2023-03-31T08:39:46;12.60;99.90
52275;DHT22;38228;50.940;4.024;2023-03-31T08:42:16;12.60;99.90
52275;DHT22;38228;50.940;4.024;2023-03-31T08:44:46;12.60;99.90
52275;DHT22;38228;50.940;4.024;2023-03-31T08:47:16;12.70;99.90
52275;DHT22;38228;50.940;4.024;2023-03-31T08:49:43;12.70;99.90
52275;DHT22;38228;50.940;4.024;2023-03-31T08:52:11;12.70;99.90
52275;DHT22;38228;50.940;4.024;2023-03-31T08:54:57;12.50;99.90
52275;DHT22;38228;50.940;4.024;2023-03-31T08:57:24;12.60;99.90
52275;DHT22;38228;50.940;4.024;2023-03-31T08:59:51;12.80;99.90
52275;DHT22;38228;50.940;4.024;2023-03-31T09:02:22;12.90;99.90
52275;DHT22;38228;50.940;4.024;2023-03-31T09:05:07;13.10;99.90
52275;DHT22;38228;50.940;4.024;2023-03-31T09:07:43;13.10;99.90
52275;DHT22;38228;50.940;4.024;2023-03-31T09:17:49;13.10;99.90
52275;DHT22;38228;50.940;4.024;2023-03-31T09:23:30;13.20;99.90
52275;DHT22;38228;50.940;4.024;2023-03-31T09:25:54;13.20;99.90
52275;DHT22;38228;50.940;4.024;2023-03-31T09:28:54;13.10;99.90
52275;DHT22;38228;50.940;4.024;2023-03-31T09:31:13;13.20;99.90
52275;DHT22;38228;50.940;4.024;2023-03-31T09:33:41;13.20;99.90
52275;DHT22;38228;50.940;4.024;2023-03-31T09:36:18;13.30;99.90
52275;DHT22;38228;50.940;4.024;2023-03-31T09:38:44;13.20;99.90
52275;DHT22;38228;50.940;4.024;2023-03-31T09:41:10;13.10;99.90
52275;DHT22;38228;50.940;4.024;2023-03-31T09:43:37;13.30;99.90
52275;DHT22;38228;50.940;4.024;2023-03-31T09:46:05;13.40;99.90
52275;DHT22;38228;50.940;4.024;2023-03-31T09:48:39;13.20;99.90
52275;DHT22;38228;50.940;4.024;2023-03-31T09:51:06;13.20;99.90
52275;DHT22;38228;50.940;4.024;2023-03-31T09:56:10;13.10;99.90
52275;DHT22;38228;50.940;4.024;2023-03-31T09:58:42;13.00;99.90
52275;DHT22;38228;50.940;4.024;2023-03-31T10:01:09;12.90;99.90
52275;DHT22;38228;50.940;4.024;2023-03-31T10:03:46;12.80;99.90
52275;DHT22;38228;50.940;4.024;2023-03-31T10:06:14;12.60;99.90
52275;DHT22;38228;50.940;4.024;2023-03-31T10:08:41;12.80;99.90
52275;DHT22;38228;50.940;4.024;2023-03-31T10:11:08;13.00;99.90
52275;DHT22;38228;50.940;4.024;2023-03-31T10:13:52;13.10;99.90
52275;DHT22;38228;50.940;4.024;2023-03-31T10:16:27;13.10;99.90
52275;DHT22;38228;50.940;4.024;2023-03-31T10:18:53;13.30;99.90
52275;DHT22;38228;50.940;4.024;2023-03-31T10:21:23;13.50;99.90
52275;DHT22;38228;50.940;4.024;2023-03-31T10:23:50;13.40;99.90
52275;DHT22;38228;50.940;4.024;2023-03-31T10:26:17;13.30;99.90
52275;DHT22;38228;50.940;4.024;2023-03-31T10:28:43;13.30;99.90
52275;DHT22;38228;50.940;4.024;2023-03-31T10:31:08;13.20;99.90
52275;DHT22;38228;50.940;4.024;2023-03-31T10:33:37;13.40;99.90
52275;DHT22;38228;50.940;4.024;2023-03-31T10:36:08;13.60;99.90
52275;DHT22;38228;50.940;4.024;2023-03-31T10:38:41;13.70;99.90
52275;DHT22;38228;50.940;4.024;2023-03-31T10:41:09;13.60;99.90
52275;DHT22;38228;50.940;4.024;2023-03-31T10:43:42;13.40;99.90
52275;DHT22;38228;50.940;4.024;2023-03-31T10:46:08;13.50;99.90
52275;DHT22;38228;50.940;4.024;2023-03-31T10:48:35;13.50;99.90
52275;DHT22;38228;50.940;4.024;2023-03-31T10:51:05;13.60;99.90
52275;DHT22;38228;50.940;4.024;2023-03-31T10:53:38;13.50;99.90
52275;DHT22;38228;50.940;4.024;2023-03-31T10:58:38;13.40;99.90
52275;DHT22;38228;50.940;4.024;2023-03-31T11:11:18;13.30;99.90
52275;DHT22;38228;50.940;4.024;2023-03-31T11:16:26;13.50;99.90
52275;DHT22;38228;50.940;4.024;2023-03-31T11:19:03;13.40;99.90
52275;DHT22;38228;50.940;4.024;2023-03-31T11:21:35;13.20;99.90
52275;DHT22;38228;50.940;4.024;2023-03-31T11:31:58;13.10;99.90
52275;DHT22;38228;50.940;4.024;2023-03-31T11:34:33;13.10;99.90
52275;DHT22;38228;50.940;4.024;2023-03-31T11:39:54;13.30;99.90
52275;DHT22;38228;50.940;4.024;2023-03-31T11:42:26;13.30;99.90
52275;DHT22;38228;50.940;4.024;2023-03-31T11:44:55;13.10;99.90
52275;DHT22;38228;50.940;4.024;2023-03-31T11:47:24;13.00;99.90
52275;DHT22;38228;50.940;4.024;2023-03-31T11:49:54;13.00;99.90
52275;DHT22;38228;50.940;4.024;2023-03-31T11:52:26;13.00;99.90
52275;DHT22;38228;50.940;4.024;2023-03-31T11:57:21;13.00;99.90
52275;DHT22;38228;50.940;4.024;2023-03-31T11:59:50;12.80;99.90
52275;DHT22;38228;50.940;4.024;2023-03-31T12:02:18;12.70;99.90
52275;DHT22;38228;50.940;4.024;2023-03-31T12:04:47;12.70;99.90
52275;DHT22;38228;50.940;4.024;2023-03-31T12:09:51;12.50;99.90
52275;DHT22;38228;50.940;4.024;2023-03-31T12:12:21;12.70;99.90
52275;DHT22;38228;50.940;4.024;2023-03-31T12:17:37;12.80;99.90
52275;DHT22;38228;50.940;4.024;2023-03-31T12:20:11;12.80;99.90
52275;DHT22;38228;50.940;4.024;2023-03-31T12:22:39;12.70;99.90
52275;DHT22;38228;50.940;4.024;2023-03-31T12:25:10;12.50;99.90
52275;DHT22;38228;50.940;4.024;2023-03-31T12:27:37;12.80;99.90
52275;DHT22;38228;50.940;4.024;2023-03-31T12:32:31;12.70;99.90
52275;DHT22;38228;50.940;4.024;2023-03-31T12:35:03;12.60;99.90
52275;DHT22;38228;50.940;4.024;2023-03-31T12:42:54;12.80;99.90
52275;DHT22;38228;50.940;4.024;2023-03-31T12:45:25;12.80;99.90
52275;DHT22;38228;50.940;4.024;2023-03-31T12:48:14;12.60;99.90
52275;DHT22;38228;50.940;4.024;2023-03-31T12:53:32;12.40;99.90
52275;DHT22;38228;50.940;4.024;2023-03-31T12:56:00;12.40;99.90
52275;DHT22;38228;50.940;4.024;2023-03-31T13:06:03;12.50;99.90
52275;DHT22;38228;50.940;4.024;2023-03-31T13:08:49;12.50;99.90
52275;DHT22;38228;50.940;4.024;2023-03-31T13:11:15;12.60;99.90
52275;DHT22;38228;50.940;4.024;2023-03-31T13:13:44;12.50;99.90
52275;DHT22;38228;50.940;4.024;2023-03-31T13:16:16;12.60;99.90
52275;DHT22;38228;50.940;4.024;2023-03-31T13:18:44;12.70;99.90
52275;DHT22;38228;50.940;4.024;2023-03-31T13:21:14;12.80;99.90
52275;DHT22;38228;50.940;4.024;2023-03-31T13:23:42;12.90;99.90
52275;DHT22;38228;50.940;4.024;2023-03-31T13:29:47;13.20;99.90
52275;DHT22;38228;50.940;4.024;2023-03-31T13:37:06;13.20;99.90
52275;DHT22;38228;50.940;4.024;2023-03-31T13:52:38;12.60;99.90
52275;DHT22;38228;50.940;4.024;2023-03-31T14:00:26;12.50;99.90
52275;DHT22;38228;50.940;4.024;2023-03-31T14:05:41;12.70;99.90
52275;DHT22;38228;50.940;4.024;2023-03-31T14:08:11;12.60;99.90
52275;DHT22;38228;50.940;4.024;2023-03-31T14:10:39;12.60;99.90
52275;DHT22;38228;50.940;4.024;2023-03-31T14:13:24;12.60;99.90
52275;DHT22;38228;50.940;4.024;2023-03-31T14:15:51;12.60;99.90
52275;DHT22;38228;50.940;4.024;2023-03-31T14:18:24;12.60;99.90
52275;DHT22;38228;50.940;4.024;2023-03-31T14:23:39;12.50;99.90
52275;DHT22;38228;50.940;4.024;2023-03-31T14:39:12;12.70;99.90
52275;DHT22;38228;50.940;4.024;2023-03-31T14:41:38;12.80;99.90
52275;DHT22;38228;50.940;4.024;2023-03-31T14:44:06;12.40;99.90
52275;DHT22;38228;50.940;4.024;2023-03-31T14:46:35;12.20;99.90
52275;DHT22;38228;50.940;4.024;2023-03-31T14:49:19;12.30;99.90
52275;DHT22;38228;50.940;4.024;2023-03-31T14:51:46;12.30;99.90
52275;DHT22;38228;50.940;4.024;2023-03-31T14:54:16;12.10;99.90
52275;DHT22;38228;50.940;4.024;2023-03-31T14:56:42;12.10;99.90
52275;DHT22;38228;50.940;4.024;2023-03-31T14:59:09;12.10;99.90
52275;DHT22;38228;50.940;4.024;2023-03-31T15:01:35;11.90;99.90
52275;DHT22;38228;50.940;4.024;2023-03-31T15:04:21;11.90;99.90
52275;DHT22;38228;50.940;4.024;2023-03-31T15:06:47;11.90;99.90
52275;DHT22;38228;50.940;4.024;2023-03-31T15:09:20;11.90;99.90
52275;DHT22;38228;50.940;4.024;2023-03-31T15:11:47;11.60;99.90
52275;DHT22;38228;50.940;4.024;2023-03-31T15:14:12;11.60;99.90
52275;DHT22;38228;50.940;4.024;2023-03-31T15:16:42;11.70;99.90
52275;DHT22;38228;50.940;4.024;2023-03-31T15:19:18;11.60;99.90
52275;DHT22;38228;50.940;4.024;2023-03-31T15:21:44;11.60;99.90
52275;DHT22;38228;50.940;4.024;2023-03-31T15:24:11;11.70;99.90
52275;DHT22;38228;50.940;4.024;2023-03-31T15:26:38;11.70;99.90
52275;DHT22;38228;50.940;4.024;2023-03-31T15:29:15;11.70;99.90
52275;DHT22;38228;50.940;4.024;2023-03-31T15:31:41;11.80;99.90
52275;DHT22;38228;50.940;4.024;2023-03-31T15:34:11;11.80;99.90
52275;DHT22;38228;50.940;4.024;2023-03-31T15:36:38;11.80;99.90
52275;DHT22;38228;50.940;4.024;2023-03-31T15:39:03;11.80;99.90
52275;DHT22;38228;50.940;4.024;2023-03-31T15:41:30;11.70;99.90
52275;DHT22;38228;50.940;4.024;2023-03-31T15:44:06;11.80;99.90
52275;DHT22;38228;50.940;4.024;2023-03-31T15:49:04;11.80;99.90
52275;DHT22;38228;50.940;4.024;2023-03-31T15:51:32;11.70;99.90
52275;DHT22;38228;50.940;4.024;2023-03-31T15:53:58;11.70;99.90
52275;DHT22;38228;50.940;4.024;2023-03-31T15:56:33;11.80;99.90
52275;DHT22;38228;50.940;4.024;2023-03-31T15:58:59;11.80;99.90
52275;DHT22;38228;50.940;4.024;2023-03-31T16:01:26;11.90;99.90
52275;DHT22;38228;50.940;4.024;2023-03-31T16:03:54;11.90;99.90
52275;DHT22;38228;50.940;4.024;2023-03-31T16:08:55;12.00;99.90
52275;DHT22;38228;50.940;4.024;2023-03-31T16:11:24;11.90;99.90
52275;DHT22;38228;50.940;4.024;2023-03-31T16:13:53;11.70;99.90
52275;DHT22;38228;50.940;4.024;2023-03-31T16:16:21;11.70;99.90
52275;DHT22;38228;50.940;4.024;2023-03-31T16:18:48;11.80;99.90
52275;DHT22;38228;50.940;4.024;2023-03-31T16:21:19;11.70;99.90
52275;DHT22;38228;50.940;4.024;2023-03-31T16:23:48;11.60;99.90
52275;DHT22;38228;50.940;4.024;2023-03-31T16:26:18;11.60;99.90
52275;DHT22;38228;50.940;4.024;2023-03-31T16:28:45;11.60;99.90
52275;DHT22;38228;50.940;4.024;2023-03-31T16:34:11;11.50;99.90
52275;DHT22;38228;50.940;4.024;2023-03-31T16:36:37;11.50;99.90
52275;DHT22;38228;50.940;4.024;2023-03-31T16:39:03;11.50;99.90
52275;DHT22;38228;50.940;4.024;2023-03-31T16:41:32;11.30;99.90
52275;DHT22;38228;50.940;4.024;2023-03-31T16:43:58;11.20;99.90
52275;DHT22;38228;50.940;4.024;2023-03-31T16:46:24;11.20;99.90
52275;DHT22;38228;50.940;4.024;2023-03-31T16:48:49;11.40;99.90
52275;DHT22;38228;50.940;4.024;2023-03-31T16:51:15;11.20;99.90
52275;DHT22;38228;50.940;4.024;2023-03-31T16:53:42;11.10;99.90
52275;DHT22;38228;50.940;4.024;2023-03-31T16:56:08;10.90;99.90
52275;DHT22;38228;50.940;4.024;2023-03-31T16:58:34;10.90;99.90
52275;DHT22;38228;50.940;4.024;2023-03-31T17:01:00;10.90;99.90
52275;DHT22;38228;50.940;4.024;2023-03-31T17:03:26;10.80;99.90
52275;DHT22;38228;50.940;4.024;2023-03-31T17:05:53;10.80;99.90
52275;DHT22;38228;50.940;4.024;2023-03-31T17:08:21;10.90;99.90
52275;DHT22;38228;50.940;4.024;2023-03-31T17:11:00;10.90;99.90
52275;DHT22;38228;50.940;4.024;2023-03-31T17:13:27;11.00;99.90
52275;DHT22;38228;50.940;4.024;2023-03-31T17:15:53;11.00;99.90
52275;DHT22;38228;50.940;4.024;2023-03-31T17:18:19;11.00;99.90
52275;DHT22;38228;50.940;4.024;2023-03-31T17:20:44;11.00;99.90
52275;DHT22;38228;50.940;4.024;2023-03-31T17:23:10;11.00;99.90
52275;DHT22;38228;50.940;4.024;2023-03-31T17:25:36;11.10;99.90
52275;DHT22;38228;50.940;4.024;2023-03-31T17:28:04;11.00;99.90
52275;DHT22;38228;50.940;4.024;2023-03-31T17:30:30;11.00;99.90
52275;DHT22;38228;50.940;4.024;2023-03-31T17:32:56;11.00;99.90
52275;DHT22;38228;50.940;4.024;2023-03-31T17:35:23;11.00;99.90
52275;DHT22;38228;50.940;4.024;2023-03-31T17:37:49;11.10;99.90
52275;DHT22;38228;50.940;4.024;2023-03-31T17:40:18;11.00;99.90
52275;DHT22;38228;50.940;4.024;2023-03-31T17:42:44;11.00;99.90
52275;DHT22;38228;50.940;4.024;2023-03-31T17:45:11;10.90;99.90
52275;DHT22;38228;50.940;4.024;2023-03-31T17:47:37;10.90;99.90
52275;DHT22;38228;50.940;4.024;2023-03-31T17:50:03;10.80;99.90
52275;DHT22;38228;50.940;4.024;2023-03-31T17:52:29;10.80;99.90
52275;DHT22;38228;50.940;4.024;2023-03-31T17:54:54;10.80;99.90
52275;DHT22;38228;50.940;4.024;2023-03-31T17:57:22;10.70;99.90
52275;DHT22;38228;50.940;4.024;2023-03-31T17:59:47;10.80;99.90
52275;DHT22;38228;50.940;4.024;2023-03-31T18:02:13;10.70;99.90
52275;DHT22;38228;50.940;4.024;2023-03-31T18:04:39;10.80;99.90
52275;DHT22;38228;50.940;4.024;2023-03-31T18:07:05;10.70;99.90
52275;DHT22;38228;50.940;4.024;2023-03-31T18:09:31;10.70;99.90
52275;DHT22;38228;50.940;4.024;2023-03-31T18:11:56;10.70;99.90
52275;DHT22;38228;50.940;4.024;2023-03-31T18:14:23;10.70;99.90
52275;DHT22;38228;50.940;4.024;2023-03-31T18:16:49;10.60;99.90
52275;DHT22;38228;50.940;4.024;2023-03-31T18:19:14;10.70;99.90
52275;DHT22;38228;50.940;4.024;2023-03-31T18:21:41;10.50;99.90